createdAt,value
2022-08-19T00:01:53.284Z,101094.56
2022-08-19T00:04:39.224Z,101088.94
2022-08-19T00:07:24.375Z,101071.97
2022-08-19T00:10:12.598Z,101078.31
2022-08-19T00:12:57.485Z,101070.66
2022-08-19T00:15:45.624Z,101071.34
2022-08-19T00:18:30.538Z,101059.03
2022-08-19T00:21:16.521Z,101062.06
2022-08-19T00:24:02.093Z,101062.44
2022-08-19T00:26:47.306Z,101077.69
2022-08-19T00:29:32.409Z,101068.22
2022-08-19T00:32:18.132Z,101073.81
2022-08-19T00:35:04.864Z,101078.31
2022-08-19T00:37:50.832Z,101071.56
2022-08-19T00:40:36.405Z,101071.25
2022-08-19T00:43:24.053Z,101072.09
2022-08-19T00:46:09.492Z,101077.41
2022-08-19T00:48:56.804Z,101080.44
2022-08-19T00:51:43.050Z,101083.94
2022-08-19T00:54:39.918Z,101083.75
2022-08-19T00:57:36.046Z,101074.66
2022-08-19T01:00:24.160Z,101068.38
2022-08-19T01:03:12.909Z,101060.75
2022-08-19T01:05:57.912Z,101065.91
2022-08-19T01:08:43.391Z,101066.22
2022-08-19T01:11:30.996Z,101067.88
2022-08-19T01:14:17.682Z,101069.88
2022-08-19T01:17:03.306Z,101074.88
2022-08-19T01:19:49.139Z,101064.84
2022-08-19T01:22:46.154Z,101070.91
2022-08-19T01:25:36.495Z,101078.94
2022-08-19T01:28:33.820Z,101075.31
2022-08-19T01:31:26.987Z,101062.03
2022-08-19T01:34:12.751Z,101052.84
2022-08-19T01:36:58.154Z,101066.72
2022-08-19T01:39:44.329Z,101069.38
2022-08-19T01:42:30.840Z,101063.72
2022-08-19T01:45:17.569Z,101065.56
2022-08-19T01:48:03.524Z,101056.59
2022-08-19T01:50:48.924Z,101050.97
2022-08-19T01:53:34.526Z,101053.78
2022-08-19T01:56:20.046Z,101044.75
2022-08-19T01:59:11.695Z,101055.75
2022-08-19T02:01:56.716Z,101049.97
2022-08-19T02:04:41.965Z,101046.94
2022-08-19T02:07:29.234Z,101056.81
2022-08-19T02:10:20.298Z,101059.47
2022-08-19T02:13:05.494Z,101050.66
2022-08-19T02:15:50.643Z,101062.63
2022-08-19T02:18:36.110Z,101061.13
2022-08-19T02:21:23.398Z,101055.66
2022-08-19T02:24:08.412Z,101045.81
2022-08-19T02:26:53.837Z,101058.16
2022-08-19T02:29:38.862Z,101048.47
2022-08-19T02:32:24.034Z,101054.84
2022-08-19T02:35:12.422Z,101051.19
2022-08-19T02:38:16.529Z,101059.84
2022-08-19T02:41:05.396Z,101037.88
2022-08-19T02:44:28.548Z,101054.19
2022-08-19T02:46:56.393Z,101049.88
2022-08-19T02:49:42.108Z,101061.16
2022-08-19T02:52:28.363Z,101064.53
2022-08-19T02:55:13.593Z,101049.03
2022-08-19T02:57:58.657Z,101050.84
2022-08-19T03:00:46.626Z,101052.91
2022-08-19T03:03:32.861Z,101041.38
2022-08-19T03:06:18.412Z,101055.56
2022-08-19T03:09:03.674Z,101051.94
2022-08-19T03:11:48.997Z,101041.91
2022-08-19T03:14:38.158Z,101046.06
2022-08-19T03:17:23.179Z,101037.41
2022-08-19T03:20:08.871Z,101044.25
2022-08-19T03:22:54.233Z,101055.09
2022-08-19T03:25:46.528Z,101050.25
2022-08-19T03:28:49.519Z,101058.59
2022-08-19T03:31:45.549Z,101064.59
2022-08-19T03:34:39.321Z,101060.09
2022-08-19T03:37:24.538Z,101067.25
2022-08-19T03:40:16.354Z,101062.63
2022-08-19T03:43:02.007Z,101057.28
2022-08-19T03:45:47.914Z,101056.28
2022-08-19T03:48:33.959Z,101058.28
2022-08-19T03:51:30.668Z,101062.44
2022-08-19T03:54:20.187Z,101053.63
2022-08-19T03:57:05.253Z,101060.28
2022-08-19T03:59:50.727Z,101057.44
2022-08-19T04:02:35.799Z,101043.56
2022-08-19T04:05:21.561Z,101051.41
2022-08-19T04:08:14.001Z,101059.59
2022-08-19T04:10:59.250Z,101063.06
2022-08-19T04:13:45.341Z,101059.59
2022-08-19T04:16:34.977Z,101060.75
2022-08-19T04:19:21.194Z,101058.22
2022-08-19T04:22:06.379Z,101060.06
2022-08-19T04:24:51.463Z,101055.56
2022-08-19T04:27:36.500Z,101047.72
2022-08-19T04:30:23.485Z,101044.56
2022-08-19T04:33:09.586Z,101047.72
2022-08-19T04:35:54.526Z,101048.88
2022-08-19T04:38:39.755Z,101062.84
2022-08-19T04:41:44.664Z,101059.22
2022-08-19T04:44:33.290Z,101060.19
2022-08-19T04:47:20.157Z,101073.50
2022-08-19T04:50:27.113Z,101074.97
2022-08-19T04:53:12.062Z,101070.47
2022-08-19T04:55:58.624Z,101059.47
2022-08-19T04:58:45.256Z,101073.28
2022-08-19T05:01:33.229Z,101060.97
2022-08-19T05:04:21.531Z,101066.63
2022-08-19T05:07:08.885Z,101073.06
2022-08-19T05:09:58.390Z,101069.72
2022-08-19T05:12:44.121Z,101080.06
2022-08-19T05:15:29.225Z,101071.75
2022-08-19T05:18:32.996Z,101082.38
2022-08-19T05:21:39.189Z,101086.88
2022-08-19T05:24:24.875Z,101088.72
2022-08-19T05:27:10.165Z,101089.03
2022-08-19T05:29:55.589Z,101090.38
2022-08-19T05:32:41.267Z,101086.56
2022-08-19T05:35:26.513Z,101094.41
2022-08-19T05:38:12.097Z,101096.06
2022-08-19T05:40:58.577Z,101113.53
2022-08-19T05:43:43.926Z,101111.03
2022-08-19T05:46:29.172Z,101112.56
2022-08-19T05:49:16.663Z,101111.69
2022-08-19T05:52:11.760Z,101114.75
2022-08-19T05:54:57.807Z,101108.13
2022-08-19T05:57:42.953Z,101093.66
2022-08-19T06:00:28.606Z,101096.50
2022-08-19T06:03:13.565Z,101088.19
2022-08-19T06:06:00.396Z,101092.91
2022-08-19T06:08:51.615Z,101099.56
2022-08-19T06:11:46.125Z,101095.91
2022-08-19T06:14:35.101Z,101108.75
2022-08-19T06:17:26.622Z,101107.91
2022-08-19T06:20:15.790Z,101108.59
2022-08-19T06:23:00.810Z,101102.47
2022-08-19T06:25:45.992Z,101098.97
2022-08-19T06:28:31.150Z,101108.94
2022-08-19T06:31:21.953Z,101106.38
2022-08-19T06:34:07.077Z,101111.34
2022-08-19T06:36:53.382Z,101110.16
2022-08-19T06:39:40.193Z,101110.31
2022-08-19T06:42:25.562Z,101109.19
2022-08-19T06:45:11.251Z,101102.34
2022-08-19T06:47:57.046Z,101111.72
2022-08-19T06:50:42.078Z,101116.22
2022-08-19T06:53:29.040Z,101116.38
2022-08-19T06:56:16.581Z,101125.19
2022-08-19T06:59:07.968Z,101133.84
2022-08-19T07:01:55.262Z,101126.31
2022-08-19T07:04:42.677Z,101135.38
2022-08-19T07:07:27.826Z,101120.91
2022-08-19T07:10:13.029Z,101129.13
2022-08-19T07:12:58.326Z,101123.78
2022-08-19T07:15:44.336Z,101115.59
2022-08-19T07:18:29.304Z,101138.28
2022-08-19T07:21:17.581Z,101130.59
2022-08-19T07:24:05.416Z,101133.91
2022-08-19T07:26:54.899Z,101125.69
2022-08-19T07:29:39.860Z,101122.53
2022-08-19T07:32:28.432Z,101121.53
2022-08-19T07:35:13.449Z,101132.94
2022-08-19T07:38:00.149Z,101139.75
2022-08-19T07:40:46.853Z,101131.66
2022-08-19T07:43:34.836Z,101137.59
2022-08-19T07:46:23.782Z,101135.13
2022-08-19T07:49:20.086Z,101139.63
2022-08-19T07:52:08.952Z,101142.13
2022-08-19T07:54:53.863Z,101126.44
2022-08-19T07:57:39.822Z,101142.13
2022-08-19T08:00:25.011Z,101140.50
2022-08-19T08:03:15.718Z,101139.47
2022-08-19T08:06:19.663Z,101138.66
2022-08-19T08:09:12.418Z,101143.97
2022-08-19T08:12:32.873Z,101144.47
2022-08-19T08:15:17.291Z,101149.97
2022-08-19T08:18:02.433Z,101150.78
2022-08-19T08:20:47.841Z,101143.47
2022-08-19T08:23:32.689Z,101149.06
2022-08-19T08:26:19.386Z,101144.03
2022-08-19T08:29:12.232Z,101155.50
2022-08-19T08:31:58.662Z,101157.88
2022-08-19T08:34:45.364Z,101158.22
2022-08-19T08:37:35.170Z,101155.53
2022-08-19T08:40:44.647Z,101155.38
2022-08-19T08:43:34.225Z,101161.59
2022-08-19T08:46:30.769Z,101159.91
2022-08-19T08:49:44.605Z,101160.25
2022-08-19T08:52:36.961Z,101157.06
2022-08-19T08:55:36.857Z,101161.56
2022-08-19T08:58:32.647Z,101153.38
2022-08-19T09:01:18.114Z,101158.72
2022-08-19T09:04:08.284Z,101159.50
2022-08-19T09:07:36.007Z,101151.34
2022-08-19T09:10:56.438Z,101156.50
2022-08-19T09:14:23.560Z,101149.38
2022-08-19T09:17:16.681Z,101151.94
2022-08-19T09:20:16.814Z,101160.19
2022-08-19T09:23:02.885Z,101151.03
2022-08-19T09:25:47.984Z,101166.88
2022-08-19T09:28:33.273Z,101159.53
2022-08-19T09:31:22.355Z,101150.16
2022-08-19T09:34:07.231Z,101145.81
2022-08-19T09:36:54.137Z,101145.88
2022-08-19T09:39:41.898Z,101148.94
2022-08-19T09:42:30.039Z,101145.81
2022-08-19T09:45:22.881Z,101146.78
2022-08-19T09:48:07.860Z,101143.44
2022-08-19T09:50:54.824Z,101153.41
2022-08-19T09:53:40.187Z,101144.16
2022-08-19T09:56:25.524Z,101151.19
2022-08-19T09:59:11.331Z,101135.72
2022-08-19T10:01:56.759Z,101150.81
2022-08-19T10:05:07.877Z,101151.16
2022-08-19T10:07:53.399Z,101144.66
2022-08-19T10:10:38.532Z,101156.50
2022-08-19T10:13:31.074Z,101150.44
2022-08-19T10:16:19.752Z,101157.66
2022-08-19T10:19:06.084Z,101149.84
2022-08-19T10:21:51.330Z,101146.28
2022-08-19T10:24:36.426Z,101140.66
2022-08-19T10:27:22.264Z,101143.09
2022-08-19T10:30:10.051Z,101144.16
2022-08-19T10:32:56.080Z,101160.53
2022-08-19T10:35:42.662Z,101153.16
2022-08-19T10:38:51.232Z,101142.38
2022-08-19T10:41:41.164Z,101155.63
2022-08-19T10:44:32.097Z,101147.78
2022-08-19T10:47:25.714Z,101152.03
2022-08-19T10:50:30.161Z,101145.78
2022-08-19T10:53:15.120Z,101138.25
2022-08-19T10:56:18.620Z,101136.97
2022-08-19T10:59:04.470Z,101143.78
2022-08-19T11:01:50.573Z,101151.13
2022-08-19T11:04:40.130Z,101136.22
2022-08-19T11:07:27.374Z,101152.53
2022-08-19T11:10:18.226Z,101157.59
2022-08-19T11:13:05.999Z,101152.50
2022-08-19T11:16:06.795Z,101167.94
2022-08-19T11:18:55.881Z,101173.81
2022-08-19T11:21:43.873Z,101176.47
2022-08-19T11:24:29.921Z,101180.88
2022-08-19T11:27:15.253Z,101184.91
2022-08-19T11:30:01.487Z,101178.25
2022-08-19T11:32:51.920Z,101164.78
2022-08-19T11:35:40.985Z,101175.81
2022-08-19T11:38:26.909Z,101184.47
2022-08-19T11:41:12.074Z,101189.31
2022-08-19T11:43:57.410Z,101185.47
2022-08-19T11:46:47.444Z,101195.97
2022-08-19T11:49:32.756Z,101201.28
2022-08-19T11:52:18.138Z,101198.47
2022-08-19T11:55:03.649Z,101196.97
2022-08-19T11:57:48.731Z,101206.97
2022-08-19T12:00:36.389Z,101196.81
2022-08-19T12:03:21.701Z,101216.31
2022-08-19T12:06:09.810Z,101194.63
2022-08-19T12:08:56.345Z,101205.59
2022-08-19T12:11:41.981Z,101211.25
2022-08-19T12:14:28.873Z,101209.91
2022-08-19T12:17:14.328Z,101212.22
2022-08-19T12:19:59.252Z,101213.25
2022-08-19T12:22:44.605Z,101215.75
2022-08-19T12:25:29.558Z,101215.94
2022-08-19T12:28:14.841Z,101217.94
2022-08-19T12:31:00.280Z,101227.47
2022-08-19T12:33:47.677Z,101215.25
2022-08-19T12:36:32.779Z,101225.28
2022-08-19T12:39:18.406Z,101229.47
2022-08-19T12:42:03.297Z,101227.97
2022-08-19T12:44:48.537Z,101217.97
2022-08-19T12:47:34.009Z,101218.66
2022-08-19T12:50:23.293Z,101209.63
2022-08-19T12:53:08.680Z,101211.78
2022-08-19T12:55:58.396Z,101202.25
2022-08-19T12:58:48.715Z,101207.41
2022-08-19T13:01:35.408Z,101205.13
2022-08-19T13:04:20.810Z,101203.03
2022-08-19T13:07:05.952Z,101179.22
2022-08-19T13:09:52.856Z,101191.09
2022-08-19T13:12:37.777Z,101189.09
2022-08-19T13:15:24.508Z,101174.25
2022-08-19T13:18:11.467Z,101187.25
2022-08-19T13:20:57.402Z,101171.31
2022-08-19T13:23:42.521Z,101183.91
2022-08-19T13:26:27.853Z,101174.31
2022-08-19T13:29:31.802Z,101183.28
2022-08-19T13:32:35.801Z,101179.72
2022-08-19T13:35:21.182Z,101177.66
2022-08-19T13:38:11.972Z,101180.72
2022-08-19T13:41:08.125Z,101178.97
2022-08-19T13:43:55.719Z,101160.13
2022-08-19T13:46:40.773Z,101161.97
2022-08-19T13:49:25.975Z,101160.72
2022-08-19T13:52:10.875Z,101158.53
2022-08-19T13:54:57.412Z,101150.97
2022-08-19T13:57:43.164Z,101157.38
2022-08-19T14:00:31.635Z,101148.28
2022-08-19T14:03:17.128Z,101147.75
2022-08-19T14:06:02.860Z,101146.06
2022-08-19T14:08:48.015Z,101132.47
2022-08-19T14:11:33.237Z,101138.84
2022-08-19T14:14:18.332Z,101137.06
2022-08-19T14:17:07.090Z,101140.56
2022-08-19T14:20:10.497Z,101131.50
2022-08-19T14:22:56.434Z,101135.88
2022-08-19T14:25:41.889Z,101136.69
2022-08-19T14:28:28.310Z,101131.38
2022-08-19T14:31:19.357Z,101135.56
2022-08-19T14:34:04.489Z,101145.31
2022-08-19T14:36:49.939Z,101140.72
2022-08-19T14:39:35.300Z,101140.81
2022-08-19T14:42:20.991Z,101138.69
2022-08-19T14:45:07.221Z,101139.72
2022-08-19T14:47:52.940Z,101144.72
2022-08-19T14:50:38.445Z,101151.59
2022-08-19T14:53:23.466Z,101138.28
2022-08-19T14:56:11.805Z,101122.06
2022-08-19T14:59:00.301Z,101139.47
2022-08-19T15:01:45.591Z,101135.53
2022-08-19T15:04:33.699Z,101136.78
2022-08-19T15:07:19.068Z,101124.78
2022-08-19T15:10:10.532Z,101140.69
2022-08-19T15:12:55.833Z,101140.06
2022-08-19T15:15:40.970Z,101150.19
2022-08-19T15:18:26.319Z,101148.72
2022-08-19T15:21:13.461Z,101145.75
2022-08-19T15:23:59.820Z,101128.22
2022-08-19T15:26:45.019Z,101146.25
2022-08-19T15:29:30.169Z,101142.94
2022-08-19T15:32:15.441Z,101149.53
2022-08-19T15:35:02.434Z,101148.81
2022-08-19T15:37:51.131Z,101147.28
2022-08-19T15:40:36.384Z,101131.59
2022-08-19T15:43:22.286Z,101133.28
2022-08-19T15:46:07.487Z,101140.44
2022-08-19T15:48:55.952Z,101134.22
2022-08-19T15:51:43.653Z,101141.81
2022-08-19T15:54:28.762Z,101135.19
2022-08-19T15:57:22.821Z,101145.81
2022-08-19T16:00:26.891Z,101152.13
2022-08-19T16:03:33.061Z,101154.50
2022-08-19T16:06:28.230Z,101158.94
2022-08-19T16:09:14.172Z,101132.38
2022-08-19T16:12:06.074Z,101151.53
2022-08-19T16:14:51.019Z,101155.94
2022-08-19T16:17:36.502Z,101161.19
2022-08-19T16:20:22.239Z,101158.06
2022-08-19T16:23:10.079Z,101162.22
2022-08-19T16:25:55.289Z,101162.69
2022-08-19T16:28:41.553Z,101169.19
2022-08-19T16:31:27.459Z,101177.75
2022-08-19T16:34:13.771Z,101176.28
2022-08-19T16:36:58.716Z,101176.38
2022-08-19T16:39:44.551Z,101178.69
2022-08-19T16:42:29.636Z,101190.97
2022-08-19T16:45:15.209Z,101183.94
2022-08-19T16:48:00.727Z,101192.44
2022-08-19T16:50:49.461Z,101183.84
2022-08-19T16:53:35.428Z,101192.53
2022-08-19T16:56:21.425Z,101207.44
2022-08-19T16:59:06.523Z,101210.44
2022-08-19T17:01:52.321Z,101205.59
2022-08-19T17:04:37.465Z,101219.03
2022-08-19T17:07:22.706Z,101222.25
2022-08-19T17:10:08.729Z,101206.97
2022-08-19T17:12:54.827Z,101228.53
2022-08-19T17:15:40.230Z,101221.28
2022-08-19T17:18:26.180Z,101227.28
2022-08-19T17:21:16.731Z,101234.47
2022-08-19T17:24:04.930Z,101226.31
2022-08-19T17:26:49.843Z,101230.53
2022-08-19T17:29:34.871Z,101235.69
2022-08-19T17:32:24.772Z,101244.59
2022-08-19T17:35:10.941Z,101237.09
2022-08-19T17:37:56.447Z,101240.78
2022-08-19T17:40:43.050Z,101244.81
2022-08-19T17:43:32.346Z,101243.47
2022-08-19T17:46:20.293Z,101248.22
2022-08-19T17:49:06.665Z,101247.22
2022-08-19T17:51:53.398Z,101235.44
2022-08-19T17:54:38.781Z,101250.91
2022-08-19T17:57:24.455Z,101247.59
2022-08-19T18:00:15.972Z,101240.59
2022-08-19T18:03:04.729Z,101249.47
2022-08-19T18:05:51.313Z,101249.28
2022-08-19T18:08:38.910Z,101242.28
2022-08-19T18:11:24.374Z,101248.63
2022-08-19T18:14:09.646Z,101256.97
2022-08-19T18:16:58.141Z,101265.16
2022-08-19T18:19:44.359Z,101265.66
2022-08-19T18:22:36.919Z,101271.16
2022-08-19T18:25:25.758Z,101262.34
2022-08-19T18:28:10.710Z,101275.00
2022-08-19T18:30:56.390Z,101280.66
2022-08-19T18:33:44.173Z,101272.47
2022-08-19T18:36:52.515Z,101277.13
2022-08-19T18:39:53.881Z,101270.28
2022-08-19T18:43:22.868Z,101288.13
2022-08-19T18:46:26.743Z,101272.88
2022-08-19T18:49:30.690Z,101288.53
2022-08-19T18:52:15.933Z,101288.19
2022-08-19T18:55:01.638Z,101290.69
2022-08-19T18:57:46.689Z,101283.13
2022-08-19T19:00:32.158Z,101297.16
2022-08-19T19:03:17.289Z,101296.44
2022-08-19T19:06:03.617Z,101310.22
2022-08-19T19:08:50.253Z,101318.72
2022-08-19T19:11:39.158Z,101325.66
2022-08-19T19:14:48.183Z,101317.13
2022-08-19T19:17:34.617Z,101320.84
2022-08-19T19:20:19.930Z,101332.78
2022-08-19T19:23:05.069Z,101327.56
2022-08-19T19:25:52.304Z,101323.94
2022-08-19T19:28:43.577Z,101341.44
2022-08-19T19:31:28.828Z,101339.53
2022-08-19T19:34:28.893Z,101350.00
2022-08-19T19:37:16.249Z,101350.88
2022-08-19T19:40:01.614Z,101354.03
2022-08-19T19:42:48.103Z,101339.41
2022-08-19T19:45:33.484Z,101358.50
2022-08-19T19:48:18.397Z,101358.13
2022-08-19T19:51:04.450Z,101356.72
2022-08-19T19:53:49.548Z,101361.81
2022-08-19T19:56:35.348Z,101370.13
2022-08-19T19:59:20.718Z,101360.66
2022-08-19T20:02:06.303Z,101368.94
2022-08-19T20:04:52.871Z,101371.78
2022-08-19T20:07:57.488Z,101390.00
2022-08-19T20:10:43.733Z,101378.19
2022-08-19T20:13:29.484Z,101388.25
2022-08-19T20:16:14.498Z,101392.63
2022-08-19T20:19:01.890Z,101389.69
2022-08-19T20:21:51.419Z,101383.97
2022-08-19T20:24:37.222Z,101389.84
2022-08-19T20:27:23.589Z,101387.78
2022-08-19T20:30:19.500Z,101397.09
2022-08-19T20:33:08.345Z,101403.28
2022-08-19T20:35:53.969Z,101391.59
2022-08-19T20:38:39.622Z,101398.56
2022-08-19T20:41:24.822Z,101404.84
2022-08-19T20:44:10.103Z,101402.75
2022-08-19T20:46:58.388Z,101414.22
2022-08-19T20:49:45.749Z,101404.69
2022-08-19T20:52:31.256Z,101400.38
2022-08-19T20:55:16.537Z,101394.63
2022-08-19T20:58:03.941Z,101414.34
2022-08-19T21:00:49.902Z,101413.38
2022-08-19T21:03:42.495Z,101417.97
2022-08-19T21:06:28.456Z,101415.31
2022-08-19T21:09:14.986Z,101419.19
2022-08-19T21:12:00.092Z,101417.81
2022-08-19T21:14:45.645Z,101419.19
2022-08-19T21:17:31.419Z,101426.47
2022-08-19T21:20:16.458Z,101429.38
2022-08-19T21:23:06.787Z,101422.78
2022-08-19T21:25:54.547Z,101432.50
2022-08-19T21:28:40.130Z,101427.75
2022-08-19T21:31:25.333Z,101431.09
2022-08-19T21:34:10.595Z,101422.00
2022-08-19T21:36:55.588Z,101430.91
2022-08-19T21:39:40.695Z,101441.06
2022-08-19T21:42:25.796Z,101418.31
2022-08-19T21:45:12.164Z,101441.50
2022-08-19T21:47:57.063Z,101435.00
2022-08-19T21:50:44.412Z,101442.94
2022-08-19T21:53:34.584Z,101447.09
2022-08-19T21:56:20.133Z,101432.25
2022-08-19T21:59:05.264Z,101444.66
2022-08-19T22:02:05.648Z,101434.16
2022-08-19T22:04:57.226Z,101443.38
2022-08-19T22:07:42.824Z,101447.25
2022-08-19T22:10:31.210Z,101441.66
2022-08-19T22:13:18.231Z,101432.69
2022-08-19T22:16:04.349Z,101453.78
2022-08-19T22:18:54.325Z,101457.13
2022-08-19T22:21:41.261Z,101463.78
2022-08-19T22:24:27.019Z,101464.44
2022-08-19T22:27:12.341Z,101445.59
2022-08-19T22:29:58.290Z,101469.38
2022-08-19T22:32:48.829Z,101471.19
2022-08-19T22:35:42.778Z,101472.66
2022-08-19T22:38:28.202Z,101473.69
2022-08-19T22:41:13.453Z,101481.63
2022-08-19T22:43:59.074Z,101485.47
2022-08-19T22:46:44.169Z,101482.94
2022-08-19T22:49:29.372Z,101463.75
2022-08-19T22:52:19.245Z,101484.75
2022-08-19T22:55:06.804Z,101483.91
2022-08-19T22:57:53.432Z,101490.19
2022-08-19T23:00:38.644Z,101494.41
2022-08-19T23:03:25.258Z,101480.97
2022-08-19T23:06:10.770Z,101488.22
2022-08-19T23:08:56.763Z,101485.19
2022-08-19T23:11:42.383Z,101481.63
2022-08-19T23:14:28.104Z,101486.06
2022-08-19T23:17:13.065Z,101492.81
2022-08-19T23:19:59.825Z,101490.28
2022-08-19T23:22:49.551Z,101490.53
2022-08-19T23:25:36.506Z,101484.41
2022-08-19T23:28:41.190Z,101486.56
2022-08-19T23:31:26.799Z,101479.09
2022-08-19T23:34:11.881Z,101474.47
2022-08-19T23:36:56.716Z,101475.03
2022-08-19T23:39:41.610Z,101477.81
2022-08-19T23:42:28.853Z,101470.63
2022-08-19T23:45:14.771Z,101469.31
2022-08-19T23:48:07.852Z,101471.94
2022-08-19T23:50:53.422Z,101479.03
2022-08-19T23:53:40.424Z,101469.56
2022-08-19T23:56:25.576Z,101464.72
2022-08-19T23:59:10.965Z,101477.69
